Estación Meteorológica Peña el Pijo (Robertgarden) [ 07/19/24 11:37:33 CEST ]

Fecha Hora Presion(HPa) Temp (°C) Humedad % Rocio (°C) Viento ( m/s) Direccion Lluvia 1Hora(mm) Lluvia 24H(mm) LLuvia Total(mm)
2012-Jul-16 01:01:18 1018.000 19.3 77 15.2         167.83
2012-Jul-16 02:01:15 1018.000 18.5 79 14.8         167.83
2012-Jul-16 03:01:45 1018.100 17.8 78 13.9         167.83
2012-Jul-16 04:03:14 1018.400 16.3 80 12.9         167.83
2012-Jul-16 05:01:18 1018.700 15.8 82 12.8         167.83
2012-Jul-16 06:01:14 1018.900 16.6 81 13.3         167.83
2012-Jul-16 07:01:13 1019.200 17.1 80 13.6         167.83
2012-Jul-16 08:01:15 1019.600 18.1 80 14.6         167.83
2012-Jul-16 09:01:13 1020.000 19.8 73 14.8 0.9 E     167.83
2012-Jul-16 10:01:18 1020.600 20.8 67 14.4         167.83
2012-Jul-16 11:01:13 1020.500 23.8 57 14.8         167.83
2012-Jul-16 12:01:10 1020.500 26.3 48 14.4         167.83
2012-Jul-16 13:01:14 1020.000 28.4 44 14.9 1.1 NNE     167.83
2012-Jul-16 14:01:14 1019.600 29.8 39 14.4 2.6 NE     167.83
2012-Jul-16 15:01:13 1019.300 30.2 34 12.5         167.83
2012-Jul-16 16:01:16 1019.200 32.9 32 14.0         167.83
2012-Jul-16 17:01:13 1018.800 33.4 32 14.4         167.83
2012-Jul-16 18:01:14 1018.800 30.3 36 13.5 2.6 NNE     167.83
2012-Jul-16 19:01:18 1018.700 30.8 36 13.9         167.83
2012-Jul-16 20:01:20 1019.000 27.9 43 14.1 1.7 N     167.83
2012-Jul-16 21:01:12 1019.500 24.8 51 14.0         167.83
2012-Jul-16 22:01:13 1020.000 22.8 57 13.8         167.83
2012-Jul-16 23:01:12 1021.100 20.8 65 14.0         167.83

Temperatura Máxima:33°    Temperatura Mínima:15°
Presión Máxima:1021.100 Hpa    Presión Mínima:1018.000 Hpa


Volver